createdAt,value
2018-05-10T00:01:33.115Z,21.00
2018-05-10T00:04:00.080Z,20.90
2018-05-10T00:06:26.301Z,20.90
2018-05-10T00:08:52.606Z,20.90
2018-05-10T00:11:18.822Z,20.90
2018-05-10T00:13:45.140Z,20.80
2018-05-10T00:16:11.373Z,20.80
2018-05-10T00:18:37.577Z,20.80
2018-05-10T00:21:03.796Z,20.70
2018-05-10T00:23:30.012Z,20.70
2018-05-10T00:25:56.272Z,20.70
2018-05-10T00:28:22.529Z,20.70
2018-05-10T00:30:48.860Z,20.60
2018-05-10T00:33:15.094Z,20.60
2018-05-10T00:35:41.299Z,20.60
2018-05-10T00:38:07.508Z,20.50
2018-05-10T00:40:33.710Z,20.40
2018-05-10T00:42:59.930Z,20.40
2018-05-10T00:45:26.176Z,20.20
2018-05-10T00:47:52.387Z,20.20
2018-05-10T00:50:18.578Z,19.90
2018-05-10T00:52:45.069Z,20.00
2018-05-10T00:55:11.350Z,19.90
2018-05-10T00:57:37.612Z,20.00
2018-05-10T01:00:03.832Z,20.10
2018-05-10T01:02:30.060Z,19.90
2018-05-10T01:04:56.332Z,19.90
2018-05-10T01:07:22.512Z,19.90
2018-05-10T01:09:49.471Z,19.70
2018-05-10T01:12:16.435Z,19.60
2018-05-10T01:14:42.659Z,19.60
2018-05-10T01:17:08.860Z,19.70
2018-05-10T01:19:35.068Z,19.60
2018-05-10T01:22:01.332Z,19.60
2018-05-10T01:24:27.571Z,19.50
2018-05-10T01:26:54.567Z,19.50
2018-05-10T01:29:20.777Z,19.50
2018-05-10T01:31:46.971Z,19.50
2018-05-10T01:34:13.972Z,19.30
2018-05-10T01:36:40.235Z,19.20
2018-05-10T01:39:06.449Z,19.30
2018-05-10T01:41:32.675Z,19.40
2018-05-10T01:43:58.936Z,19.40
2018-05-10T01:46:25.152Z,19.30
2018-05-10T01:48:51.372Z,19.30
2018-05-10T01:51:17.673Z,19.30
2018-05-10T01:53:43.915Z,19.30
2018-05-10T01:56:10.124Z,19.30
2018-05-10T01:58:36.438Z,19.10
2018-05-10T02:01:03.401Z,19.00
2018-05-10T02:03:29.649Z,19.00
2018-05-10T02:05:55.838Z,18.80
2018-05-10T02:08:22.034Z,18.80
2018-05-10T02:10:48.285Z,18.60
2018-05-10T02:13:14.492Z,18.60
2018-05-10T02:15:41.890Z,18.50
2018-05-10T02:18:08.114Z,18.60
2018-05-10T02:20:35.065Z,18.50
2018-05-10T02:23:01.296Z,18.70
2018-05-10T02:25:27.501Z,18.50
2018-05-10T02:27:53.740Z,18.60
2018-05-10T02:30:19.946Z,18.50
2018-05-10T02:32:46.192Z,18.60
2018-05-10T02:35:13.138Z,18.40
2018-05-10T02:37:39.386Z,18.40
2018-05-10T02:40:05.622Z,18.40
2018-05-10T02:42:31.847Z,18.30
2018-05-10T02:44:58.065Z,18.30
2018-05-10T02:47:24.272Z,18.30
2018-05-10T02:49:50.464Z,18.30
2018-05-10T02:52:16.765Z,18.20
2018-05-10T02:54:42.956Z,18.10
2018-05-10T02:57:09.905Z,18.00
2018-05-10T02:59:36.848Z,18.00
2018-05-10T03:02:03.032Z,17.90
2018-05-10T03:04:29.248Z,17.80
2018-05-10T03:06:55.496Z,17.70
2018-05-10T03:09:21.744Z,17.80
2018-05-10T03:11:47.972Z,18.00
2018-05-10T03:14:14.201Z,18.00
2018-05-10T03:16:40.436Z,18.00
2018-05-10T03:19:07.399Z,17.80
2018-05-10T03:21:34.380Z,17.60
2018-05-10T03:24:00.673Z,17.60
2018-05-10T03:26:26.893Z,17.40
2018-05-10T03:28:53.108Z,17.40
2018-05-10T03:31:19.355Z,17.30
2018-05-10T03:33:45.584Z,17.20
2018-05-10T03:36:12.529Z,17.20
2018-05-10T03:38:38.821Z,17.20
2018-05-10T03:41:05.092Z,17.20
2018-05-10T03:43:31.307Z,17.20
2018-05-10T03:45:57.557Z,17.10
2018-05-10T03:48:23.864Z,16.90
2018-05-10T03:50:50.132Z,16.90
2018-05-10T03:53:16.353Z,16.80
2018-05-10T03:55:42.562Z,16.50
2018-05-10T03:58:08.792Z,16.50
2018-05-10T04:00:35.036Z,16.60
2018-05-10T04:06:37.695Z,16.30
2018-05-10T04:09:16.403Z,16.30
2018-05-10T04:11:42.608Z,16.20
2018-05-10T04:14:08.843Z,16.30
2018-05-10T04:16:35.081Z,16.30
2018-05-10T04:19:01.324Z,16.40
2018-05-10T04:21:27.576Z,16.40
2018-05-10T04:23:53.817Z,16.50
2018-05-10T04:26:20.125Z,16.30
2018-05-10T04:28:46.236Z,16.40
2018-05-10T04:31:12.471Z,16.40
2018-05-10T04:33:38.727Z,16.40
2018-05-10T04:36:04.950Z,16.40
2018-05-10T04:38:31.199Z,16.30
2018-05-10T04:40:57.440Z,16.20
2018-05-10T04:43:23.658Z,16.30
2018-05-10T04:45:49.862Z,16.30
2018-05-10T04:48:16.135Z,16.30
2018-05-10T04:50:42.345Z,16.40
2018-05-10T04:53:08.570Z,16.50
2018-05-10T04:55:34.795Z,16.60
2018-05-10T04:58:01.034Z,16.70
2018-05-10T05:00:27.276Z,16.70
2018-05-10T05:02:53.513Z,16.80
2018-05-10T05:05:19.740Z,16.90
2018-05-10T05:07:46.036Z,16.80
2018-05-10T05:10:12.251Z,16.90
2018-05-10T05:12:38.480Z,16.70
2018-05-10T05:15:04.696Z,16.80
2018-05-10T05:17:30.944Z,17.00
2018-05-10T05:19:57.220Z,17.10
2018-05-10T05:22:23.464Z,17.10
2018-05-10T05:24:49.726Z,17.10
2018-05-10T05:27:15.927Z,17.00
2018-05-10T05:29:42.148Z,16.90
2018-05-10T05:32:09.091Z,17.60
2018-05-10T05:34:36.049Z,17.90
2018-05-10T05:37:02.337Z,17.90
2018-05-10T05:39:28.525Z,18.20
2018-05-10T05:41:54.843Z,18.60
2018-05-10T05:44:21.047Z,18.70
2018-05-10T05:46:47.324Z,18.40
2018-05-10T05:49:13.520Z,18.30
2018-05-10T05:51:39.728Z,18.10
2018-05-10T05:54:06.684Z,17.60
2018-05-10T05:56:32.879Z,17.60
2018-05-10T05:58:59.068Z,17.40
2018-05-10T06:01:25.251Z,17.20
2018-05-10T06:03:51.557Z,17.30
2018-05-10T06:06:17.803Z,17.10
2018-05-10T06:08:43.966Z,16.80
2018-05-10T06:11:10.158Z,16.70
2018-05-10T06:13:37.159Z,16.70
2018-05-10T06:16:03.508Z,16.60
2018-05-10T06:18:30.395Z,16.60
2018-05-10T06:20:56.610Z,16.60
2018-05-10T06:23:22.813Z,16.80
2018-05-10T06:25:49.061Z,16.70
2018-05-10T06:28:15.268Z,16.70
2018-05-10T06:30:42.280Z,16.80
2018-05-10T06:33:08.508Z,16.60
2018-05-10T06:35:34.750Z,16.90
2018-05-10T06:38:01.734Z,17.00
2018-05-10T06:40:27.977Z,17.00
2018-05-10T06:42:54.210Z,17.10
2018-05-10T06:45:20.428Z,17.10
2018-05-10T06:47:46.643Z,17.10
2018-05-10T06:50:12.844Z,17.10
2018-05-10T06:52:39.047Z,17.20
2018-05-10T06:55:05.316Z,17.30
2018-05-10T06:57:31.516Z,17.10
2018-05-10T06:59:58.455Z,17.30
2018-05-10T07:02:25.427Z,17.20
2018-05-10T07:04:51.619Z,17.20
2018-05-10T07:07:17.824Z,16.90
2018-05-10T07:09:44.128Z,17.00
2018-05-10T07:12:11.002Z,16.80
2018-05-10T07:14:37.295Z,16.80
2018-05-10T07:17:03.524Z,16.90
2018-05-10T07:19:29.825Z,16.90
2018-05-10T07:21:56.121Z,17.00
2018-05-10T07:24:22.365Z,17.00
2018-05-10T07:26:48.605Z,17.00
2018-05-10T07:29:17.725Z,17.20
2018-05-10T07:31:45.943Z,17.20
2018-05-10T07:34:12.172Z,17.30
2018-05-10T07:36:38.556Z,17.30
2018-05-10T07:39:04.773Z,17.50
2018-05-10T07:41:31.071Z,17.50
2018-05-10T07:43:57.307Z,17.50
2018-05-10T07:46:24.268Z,17.40
2018-05-10T07:48:50.547Z,17.40
2018-05-10T07:51:16.792Z,17.40
2018-05-10T07:53:43.068Z,17.40
2018-05-10T07:56:09.264Z,17.20
2018-05-10T07:58:35.465Z,17.40
2018-05-10T08:01:02.427Z,17.50
2018-05-10T08:03:29.394Z,17.70
2018-05-10T08:05:56.399Z,17.80
2018-05-10T08:08:22.672Z,17.80
2018-05-10T08:10:48.903Z,17.90
2018-05-10T08:13:15.106Z,18.10
2018-05-10T08:15:41.345Z,18.10
2018-05-10T08:18:07.553Z,18.30
2018-05-10T08:20:34.540Z,18.40
2018-05-10T08:23:00.821Z,18.40
2018-05-10T08:25:27.025Z,18.30
2018-05-10T08:27:53.284Z,18.40
2018-05-10T08:30:19.593Z,18.50
2018-05-10T08:32:45.803Z,18.50
2018-05-10T08:35:12.820Z,18.60
2018-05-10T08:37:39.064Z,18.50
2018-05-10T08:40:05.265Z,18.60
2018-05-10T08:42:31.492Z,18.60
2018-05-10T08:44:57.870Z,18.40
2018-05-10T08:47:24.081Z,18.30
2018-05-10T08:49:50.320Z,18.30
2018-05-10T08:52:16.607Z,18.30
2018-05-10T08:54:42.842Z,18.50
2018-05-10T08:57:09.077Z,18.50
2018-05-10T08:59:35.350Z,18.40
2018-05-10T09:02:01.584Z,18.30
2018-05-10T09:04:27.918Z,18.40
2018-05-10T09:06:54.497Z,18.50
2018-05-10T09:09:20.835Z,18.60
2018-05-10T09:11:47.241Z,18.70
2018-05-10T09:14:13.635Z,18.80
2018-05-10T09:16:40.800Z,18.70
2018-05-10T09:19:07.088Z,18.70
2018-05-10T09:21:33.283Z,18.50
2018-05-10T09:23:59.540Z,18.30
2018-05-10T09:26:25.769Z,18.20
2018-05-10T09:28:52.008Z,18.20
2018-05-10T09:31:18.259Z,18.20
2018-05-10T09:33:45.201Z,18.00
2018-05-10T09:36:12.213Z,18.00
2018-05-10T09:38:38.412Z,18.00
2018-05-10T09:41:05.340Z,17.90
2018-05-10T09:43:31.548Z,17.90
2018-05-10T09:45:57.823Z,17.60
2018-05-10T09:48:24.793Z,17.50
2018-05-10T09:50:51.061Z,17.40
2018-05-10T09:53:17.292Z,17.40
2018-05-10T09:55:44.316Z,17.30
2018-05-10T09:58:11.270Z,17.30
2018-05-10T10:00:37.487Z,17.30
2018-05-10T10:03:03.699Z,17.30
2018-05-10T10:05:30.647Z,17.40
2018-05-10T10:07:56.879Z,17.40
2018-05-10T10:10:23.828Z,17.40
2018-05-10T10:12:50.076Z,17.40
2018-05-10T10:15:17.060Z,17.40
2018-05-10T10:17:44.195Z,17.30
2018-05-10T10:20:10.348Z,17.30
2018-05-10T10:22:36.547Z,17.40
2018-05-10T10:25:03.564Z,17.30
2018-05-10T10:27:30.527Z,17.10
2018-05-10T10:29:56.729Z,17.10
2018-05-10T10:32:23.731Z,17.10
2018-05-10T10:34:49.998Z,17.10
2018-05-10T10:37:16.227Z,17.30
2018-05-10T10:39:42.464Z,17.20
2018-05-10T10:42:08.666Z,17.20
2018-05-10T10:44:34.892Z,17.10
2018-05-10T10:47:01.997Z,16.90
2018-05-10T10:49:28.219Z,16.80
2018-05-10T10:51:54.490Z,17.00
2018-05-10T10:54:20.731Z,17.10
2018-05-10T10:56:46.925Z,17.20
2018-05-10T10:59:13.152Z,17.30
2018-05-10T11:01:39.461Z,17.30
2018-05-10T11:04:05.647Z,17.30
2018-05-10T11:06:31.882Z,17.40
2018-05-10T11:08:58.120Z,17.50
2018-05-10T11:11:25.069Z,17.50
2018-05-10T11:13:52.081Z,17.40
2018-05-10T11:16:18.304Z,17.40
2018-05-10T11:18:44.528Z,17.20
2018-05-10T11:21:10.739Z,17.20
2018-05-10T11:23:36.992Z,17.30
2018-05-10T11:26:04.026Z,17.30
2018-05-10T11:28:30.244Z,17.30
2018-05-10T11:30:56.466Z,17.40
2018-05-10T11:33:22.693Z,17.50
2018-05-10T11:35:48.864Z,17.60
2018-05-10T11:38:15.091Z,17.50
2018-05-10T11:40:41.325Z,17.40
2018-05-10T11:43:07.515Z,17.40
2018-05-10T11:45:33.731Z,17.20
2018-05-10T11:47:59.916Z,17.30
2018-05-10T11:50:26.876Z,17.30
2018-05-10T11:52:53.839Z,17.20
2018-05-10T11:55:20.068Z,17.20
2018-05-10T11:57:47.024Z,17.00
2018-05-10T12:00:13.232Z,16.90
2018-05-10T12:02:39.537Z,16.80
2018-05-10T12:05:05.683Z,16.70
2018-05-10T12:07:31.888Z,16.70
2018-05-10T12:09:58.071Z,16.70
2018-05-10T12:12:24.312Z,16.50
2018-05-10T12:14:50.545Z,16.60
2018-05-10T12:17:16.756Z,16.60
2018-05-10T12:19:42.937Z,16.60
2018-05-10T12:22:10.004Z,16.70
2018-05-10T12:24:36.232Z,16.60
2018-05-10T12:27:02.269Z,16.70
2018-05-10T12:29:28.321Z,16.50
2018-05-10T12:31:55.092Z,16.40
2018-05-10T12:34:21.868Z,16.40
2018-05-10T12:36:47.894Z,16.40
2018-05-10T12:39:13.934Z,16.50
2018-05-10T12:41:40.017Z,16.50
2018-05-10T12:44:06.030Z,16.50
2018-05-10T12:46:32.052Z,16.40
2018-05-10T12:48:58.085Z,16.50
2018-05-10T12:51:24.188Z,16.50
2018-05-10T12:53:50.252Z,16.50
2018-05-10T12:56:16.305Z,16.50
2018-05-10T12:58:43.059Z,16.40
2018-05-10T13:01:09.138Z,16.40
2018-05-10T13:03:35.207Z,16.30
2018-05-10T13:06:01.244Z,16.30
2018-05-10T13:08:28.027Z,16.30
2018-05-10T13:10:54.039Z,16.20
2018-05-10T13:13:20.066Z,16.30
2018-05-10T13:15:46.827Z,16.30
2018-05-10T13:18:12.867Z,16.30
2018-05-10T13:20:38.917Z,16.30
2018-05-10T13:23:04.935Z,16.40
2018-05-10T13:25:30.976Z,16.20
2018-05-10T13:27:56.995Z,16.20
2018-05-10T13:30:23.759Z,16.10
2018-05-10T13:32:49.832Z,16.10
2018-05-10T13:35:15.976Z,16.20
2018-05-10T13:37:41.996Z,16.10
2018-05-10T13:40:08.032Z,16.10
2018-05-10T13:42:34.049Z,16.10
2018-05-10T13:45:00.079Z,15.90
2018-05-10T13:47:26.171Z,16.00
2018-05-10T13:49:52.200Z,15.90
2018-05-10T13:52:18.235Z,16.00
2018-05-10T13:54:44.268Z,16.00
2018-05-10T13:57:10.304Z,15.90
2018-05-10T13:59:36.366Z,16.00
2018-05-10T14:02:02.463Z,16.00
2018-05-10T14:04:29.307Z,15.70
2018-05-10T14:06:55.380Z,15.70
2018-05-10T14:09:21.453Z,15.80
2018-05-10T14:11:48.215Z,15.90
2018-05-10T14:14:14.228Z,15.80
2018-05-10T14:16:41.018Z,15.90
2018-05-10T14:19:07.836Z,16.00
2018-05-10T14:21:33.880Z,15.90
2018-05-10T14:24:00.648Z,16.10
2018-05-10T14:26:26.734Z,16.10
2018-05-10T14:28:52.761Z,16.30
2018-05-10T14:31:18.827Z,16.30
2018-05-10T14:33:44.858Z,16.30
2018-05-10T14:36:11.028Z,16.40
2018-05-10T14:38:37.076Z,16.40
2018-05-10T14:41:03.188Z,16.60
2018-05-10T14:43:29.234Z,16.60
2018-05-10T14:45:55.275Z,16.50
2018-05-10T14:48:21.295Z,16.60
2018-05-10T14:50:48.357Z,16.70
2018-05-10T14:53:15.179Z,16.80
2018-05-10T14:55:41.268Z,16.70
2018-05-10T14:58:07.319Z,16.60
2018-05-10T15:00:33.468Z,16.60
2018-05-10T15:02:59.507Z,16.60
2018-05-10T15:05:25.535Z,16.60
2018-05-10T15:07:51.608Z,16.50
2018-05-10T15:10:18.247Z,16.60
2018-05-10T15:12:44.387Z,16.40
2018-05-10T15:15:10.424Z,16.50
2018-05-10T15:17:36.461Z,16.60
2018-05-10T15:20:02.495Z,16.60
2018-05-10T15:22:28.526Z,16.60
2018-05-10T15:24:54.593Z,16.60
2018-05-10T15:27:21.377Z,16.70
2018-05-10T15:29:47.404Z,16.70
2018-05-10T15:32:13.440Z,16.80
2018-05-10T15:34:39.495Z,16.80
2018-05-10T15:37:05.540Z,17.00
2018-05-10T15:39:31.596Z,16.90
2018-05-10T15:41:59.138Z,17.00
2018-05-10T15:44:25.199Z,17.00
2018-05-10T15:46:51.287Z,17.10
2018-05-10T15:49:18.047Z,17.20
2018-05-10T15:54:40.656Z,17.20
2018-05-10T15:57:06.720Z,17.40
2018-05-10T15:59:32.826Z,17.50
2018-05-10T16:01:58.936Z,17.50
2018-05-10T16:04:25.016Z,17.50
2018-05-10T16:06:51.064Z,17.50
2018-05-10T16:09:17.108Z,17.50
2018-05-10T16:11:43.159Z,17.30
2018-05-10T16:14:09.208Z,17.30
2018-05-10T16:16:36.040Z,17.40
2018-05-10T16:19:02.123Z,17.40
2018-05-10T16:21:28.182Z,17.60
2018-05-10T16:23:54.386Z,17.80
2018-05-10T16:26:20.488Z,17.90
2018-05-10T16:28:46.583Z,18.10
2018-05-10T16:31:12.742Z,18.40
2018-05-10T16:33:38.838Z,18.40
2018-05-10T16:36:04.866Z,18.50
2018-05-10T16:38:30.932Z,18.30
2018-05-10T16:40:56.984Z,18.40
2018-05-10T16:43:23.031Z,18.10
2018-05-10T16:45:49.100Z,18.20
2018-05-10T16:48:15.887Z,18.00
2018-05-10T16:50:41.954Z,17.90
2018-05-10T16:53:08.006Z,18.10
2018-05-10T16:55:34.049Z,18.10
2018-05-10T16:58:00.117Z,18.40
2018-05-10T17:00:26.188Z,18.20
2018-05-10T17:02:52.264Z,18.40
2018-05-10T17:05:18.320Z,18.30
2018-05-10T17:07:44.421Z,18.20
2018-05-10T17:10:10.525Z,18.20
2018-05-10T17:12:36.600Z,18.20
2018-05-10T17:15:02.671Z,18.30
2018-05-10T17:17:29.271Z,18.30
2018-05-10T17:19:56.087Z,18.30
2018-05-10T17:22:22.131Z,18.30
2018-05-10T17:24:48.205Z,18.00
2018-05-10T17:27:14.263Z,18.00
2018-05-10T17:29:41.812Z,17.90
2018-05-10T17:32:07.851Z,17.90
2018-05-10T17:34:33.961Z,18.00
2018-05-10T17:37:00.025Z,18.00
2018-05-10T17:39:26.121Z,18.00
2018-05-10T17:41:52.250Z,18.00
2018-05-10T17:44:18.328Z,17.90
2018-05-10T17:46:44.508Z,17.60
2018-05-10T17:49:11.297Z,17.40
2018-05-10T17:51:37.348Z,17.50
2018-05-10T17:54:03.431Z,17.60
2018-05-10T17:56:29.539Z,17.70
2018-05-10T17:58:55.594Z,17.70
2018-05-10T18:01:21.659Z,17.60
2018-05-10T18:03:47.732Z,17.40
2018-05-10T18:06:13.771Z,17.50
2018-05-10T18:08:40.548Z,17.60
2018-05-10T18:11:06.703Z,17.60
2018-05-10T18:13:33.026Z,17.60
2018-05-10T18:15:59.933Z,17.30
2018-05-10T18:18:27.031Z,17.10
2018-05-10T18:20:53.154Z,17.10
2018-05-10T18:23:19.258Z,16.90
2018-05-10T18:25:45.272Z,16.70
2018-05-10T18:28:11.525Z,16.80
2018-05-10T18:30:38.568Z,17.00
2018-05-10T18:33:04.617Z,16.90
2018-05-10T18:35:31.469Z,16.80
2018-05-10T18:37:58.244Z,16.70
2018-05-10T18:40:24.280Z,16.70
2018-05-10T18:42:50.320Z,16.60
2018-05-10T18:45:16.355Z,16.80
2018-05-10T18:47:42.424Z,16.60
2018-05-10T18:50:08.661Z,16.60
2018-05-10T18:52:34.944Z,16.50
2018-05-10T18:55:01.979Z,16.30
2018-05-10T18:57:28.285Z,16.20
2018-05-10T18:59:54.561Z,16.10
2018-05-10T19:02:20.860Z,16.00
2018-05-10T19:04:47.127Z,16.10
2018-05-10T19:07:13.447Z,16.00
2018-05-10T19:09:39.632Z,16.10
2018-05-10T19:12:05.902Z,16.10
2018-05-10T19:14:32.176Z,16.10
2018-05-10T19:16:59.223Z,16.00
2018-05-10T19:19:26.268Z,15.90
2018-05-10T19:21:53.288Z,15.70
2018-05-10T19:24:19.572Z,15.70
2018-05-10T19:26:46.564Z,15.60
2018-05-10T19:29:12.804Z,15.50
2018-05-10T19:31:39.104Z,15.50
2018-05-10T19:34:05.356Z,15.50
2018-05-10T19:36:32.396Z,15.50
2018-05-10T19:38:58.690Z,15.50
2018-05-10T19:41:24.952Z,15.40
2018-05-10T19:43:51.216Z,15.30
2018-05-10T19:46:17.467Z,15.40
2018-05-10T19:48:43.860Z,15.40
2018-05-10T19:51:10.127Z,15.30
2018-05-10T19:53:36.474Z,15.30
2018-05-10T19:56:02.842Z,15.30
2018-05-10T19:58:29.832Z,15.40
2018-05-10T20:00:56.112Z,15.40
2018-05-10T20:03:22.363Z,15.50
2018-05-10T20:05:48.628Z,15.50
2018-05-10T20:08:15.644Z,15.70
2018-05-10T20:10:41.919Z,15.60
2018-05-10T20:13:08.148Z,15.60
2018-05-10T20:15:34.392Z,15.50
2018-05-10T20:18:00.648Z,15.50
2018-05-10T20:20:30.621Z,15.50
2018-05-10T20:22:57.772Z,15.50
2018-05-10T20:25:23.863Z,15.50
2018-05-10T20:27:49.955Z,15.50
2018-05-10T20:30:15.929Z,15.40
2018-05-10T20:32:42.186Z,15.40
2018-05-10T20:35:08.475Z,15.30
2018-05-10T20:37:34.829Z,15.40
2018-05-10T20:40:01.060Z,15.30
2018-05-10T20:42:27.355Z,15.40
2018-05-10T20:44:54.335Z,15.40
2018-05-10T20:47:21.315Z,15.30
2018-05-10T20:49:47.571Z,15.30
2018-05-10T20:52:13.860Z,15.30
2018-05-10T20:54:40.918Z,15.20
2018-05-10T20:57:07.030Z,15.20
2018-05-10T20:59:33.455Z,15.10
2018-05-10T21:01:59.708Z,15.00
2018-05-10T21:04:26.680Z,14.90
2018-05-10T21:06:53.036Z,14.90
2018-05-10T21:09:19.304Z,14.80
2018-05-10T21:11:46.288Z,14.80
2018-05-10T21:14:12.376Z,14.80
2018-05-10T21:16:38.641Z,14.70
2018-05-10T21:19:05.623Z,14.60
2018-05-10T21:21:31.896Z,14.60
2018-05-10T21:23:58.128Z,14.50
2018-05-10T21:26:25.127Z,14.40
2018-05-10T21:28:51.343Z,14.40
2018-05-10T21:31:18.355Z,14.20
2018-05-10T21:33:44.610Z,14.20
2018-05-10T21:36:10.852Z,14.20
2018-05-10T21:38:37.072Z,14.10
2018-05-10T21:41:03.307Z,14.10
2018-05-10T21:43:29.556Z,14.00
2018-05-10T21:45:55.791Z,13.90
2018-05-10T21:48:22.046Z,13.90
2018-05-10T21:50:48.314Z,13.80
2018-05-10T21:53:15.448Z,13.70
2018-05-10T21:55:41.620Z,13.70
2018-05-10T21:58:07.880Z,13.70
2018-05-10T22:00:34.946Z,13.70
2018-05-10T22:03:01.304Z,13.70
2018-05-10T22:05:27.524Z,13.80
2018-05-10T22:07:53.764Z,13.80
2018-05-10T22:10:19.980Z,13.90
2018-05-10T22:12:46.300Z,13.90
2018-05-10T22:15:12.667Z,14.00
2018-05-10T22:17:39.006Z,14.00
2018-05-10T22:20:05.243Z,14.00
2018-05-10T22:22:31.544Z,14.10
2018-05-10T22:24:57.752Z,14.00
2018-05-10T22:27:23.979Z,13.90
2018-05-10T22:29:50.248Z,14.00
2018-05-10T22:32:17.484Z,14.00
2018-05-10T22:34:44.567Z,13.90
2018-05-10T22:37:10.795Z,13.90
2018-05-10T22:39:37.842Z,13.90
2018-05-10T22:42:04.198Z,13.90
2018-05-10T22:44:30.440Z,13.90
2018-05-10T22:46:57.395Z,13.80
2018-05-10T22:49:23.644Z,13.80
2018-05-10T22:51:49.880Z,13.70
2018-05-10T22:54:16.132Z,13.70
2018-05-10T22:56:43.119Z,13.70
2018-05-10T22:59:09.421Z,13.70
2018-05-10T23:01:36.404Z,13.70
2018-05-10T23:04:02.696Z,13.70
2018-05-10T23:06:28.936Z,13.70
2018-05-10T23:08:55.202Z,13.70
2018-05-10T23:11:22.232Z,13.70
2018-05-10T23:13:48.485Z,13.70
2018-05-10T23:16:14.734Z,13.70
2018-05-10T23:18:41.043Z,13.60
2018-05-10T23:21:07.279Z,13.60
2018-05-10T23:23:33.718Z,13.50
2018-05-10T23:26:00.776Z,13.40
2018-05-10T23:28:27.088Z,13.40
2018-05-10T23:30:54.121Z,13.40
2018-05-10T23:33:20.452Z,13.40
2018-05-10T23:35:46.691Z,13.30
2018-05-10T23:38:12.915Z,13.30
2018-05-10T23:40:39.176Z,13.30
2018-05-10T23:43:05.484Z,13.20
2018-05-10T23:45:31.739Z,13.30
2018-05-10T23:47:58.004Z,13.20
2018-05-10T23:50:24.264Z,13.20
2018-05-10T23:52:51.256Z,13.30
2018-05-10T23:55:18.235Z,13.30
2018-05-10T23:57:44.618Z,13.30
